Time;durP1;ratioP1;P1;durP2;ratioP2;P2;SDS_P1;SDS_P2;PMS_P1;PMS_P2;Temp;Humidity;BMP_temperature;BMP_pressure;BME280_temperature;BME280_humidity;BME280_pressure;Samples;Min_cycle;Max_cycle;Signal;HPM_P1;HPM_P2
2021/07/28 00:02:13;;;;;;;22.48;11.93;;;;;;;22.71;72.80;100713.69;5052889;28;20045;-70
2021/07/28 00:04:57;;;;;;;17.05;11.82;;;;;;;23.15;70.41;100716.00;5054292;28;20049;-68
2021/07/28 00:07:42;;;;;;;19.88;12.95;;;;;;;23.19;69.70;100721.53;5059901;28;20040;-68
2021/07/28 00:10:27;;;;;;;33.45;14.25;;;;;;;23.26;69.62;100704.88;5060405;28;20052;-69
2021/07/28 00:13:12;;;;;;;19.13;12.52;;;;;;;23.39;69.28;100711.56;5056833;28;20041;-69
2021/07/28 00:15:57;;;;;;;21.73;12.85;;;;;;;23.15;70.15;100718.78;5056439;28;20045;-70
2021/07/28 00:19:30;;;;;;;27.13;13.25;;;;;;;23.22;70.22;100715.97;5039078;28;20041;-69
2021/07/28 00:24:54;;;;;;;18.17;12.98;;;;;;;23.30;69.58;100712.00;5059630;28;20041;-69
2021/07/28 00:27:39;;;;;;;;;;;;;;;23.36;69.29;100717.94;5057360;28;20041;-69
2021/07/28 00:30:23;;;;;;;29.90;16.20;;;;;;;23.23;69.37;100722.31;5055255;28;19917;-70
2021/07/28 00:33:08;;;;;;;22.10;12.93;;;;;;;23.22;70.09;100715.19;5060844;28;20037;-69
2021/07/28 00:35:54;;;;;;;21.55;13.32;;;;;;;23.33;69.63;100704.84;5056170;28;20049;-69
2021/07/28 00:38:39;;;;;;;24.35;15.10;;;;;;;22.63;71.67;100708.53;5060388;28;20041;-70
2021/07/28 00:41:24;;;;;;;20.23;13.77;;;;;;;22.37;73.65;100718.03;5060702;28;20052;-70
2021/07/28 00:44:09;;;;;;;24.98;14.63;;;;;;;22.97;71.36;100699.41;5060100;28;20033;-69
2021/07/28 00:46:54;;;;;;;20.17;14.15;;;;;;;23.23;70.15;100705.66;5050811;28;20414;-71
2021/07/28 00:49:38;;;;;;;30.38;15.90;;;;;;;22.69;71.86;100704.97;5053595;28;20048;-69
2021/07/28 00:52:23;;;;;;;24.88;15.98;;;;;;;22.30;74.08;100712.50;5057712;28;20044;-69
2021/07/28 00:55:08;;;;;;;24.08;16.17;;;;;;;20.84;79.50;100703.59;5058150;28;20036;-69
2021/07/28 00:57:53;;;;;;;22.70;15.77;;;;;;;20.36;83.80;100704.81;5052075;28;20049;-70
2021/07/28 01:00:39;;;;;;;28.35;17.75;;;;;;;20.85;81.34;100702.41;5057665;28;20045;-68
2021/07/28 01:03:24;;;;;;;28.20;16.85;;;;;;;20.40;82.93;100705.63;5059696;28;20049;-68
2021/07/28 01:06:10;;;;;;;28.13;17.33;;;;;;;20.67;81.58;100695.19;5049854;28;20041;-68
2021/07/28 01:08:54;;;;;;;24.08;16.58;;;;;;;20.22;82.87;100699.88;5052076;28;20041;-68
2021/07/28 01:11:39;;;;;;;31.42;18.85;;;;;;;20.01;84.61;100706.00;5053653;28;20033;-68
2021/07/28 01:14:25;;;;;;;30.80;18.80;;;;;;;20.06;85.14;100691.09;5049809;28;20037;-71
2021/07/28 01:17:11;;;;;;;25.25;17.80;;;;;;;20.45;82.94;100696.97;5059719;28;20045;-69
2021/07/28 01:20:04;;;;;;;28.98;18.23;;;;;;;20.12;84.13;100705.31;5055609;28;20048;-70
2021/07/28 01:22:54;;;;;;;28.67;17.67;;;;;;;19.73;85.46;100691.91;5043781;28;20398;-69
2021/07/28 01:25:41;;;;;;;29.42;18.40;;;;;;;19.74;86.80;100684.44;5043519;28;20438;-68
2021/07/28 01:28:28;;;;;;;27.92;16.55;;;;;;;20.02;84.50;100677.22;5058811;28;20041;-68
2021/07/28 01:31:17;;;;;;;30.75;17.23;;;;;;;19.92;85.13;100683.44;5043281;28;20045;-68
2021/07/28 01:34:02;;;;;;;26.48;17.95;;;;;;;19.71;86.24;100674.16;5055410;28;20410;-67
2021/07/28 01:36:49;;;;;;;28.08;18.25;;;;;;;19.87;85.29;100681.03;5052521;28;20052;-68
2021/07/28 01:39:34;;;;;;;27.42;17.92;;;;;;;19.75;84.95;100667.50;5059465;28;20045;-67
2021/07/28 01:42:19;;;;;;;31.25;18.10;;;;;;;19.89;84.86;100669.59;5059678;28;20037;-67
2021/07/28 01:45:04;;;;;;;27.35;17.15;;;;;;;19.59;86.12;100664.97;5057643;28;20052;-67
2021/07/28 01:47:49;;;;;;;27.27;17.52;;;;;;;19.79;85.71;100664.78;5050361;28;20036;-68
2021/07/28 01:50:35;;;;;;;24.73;15.40;;;;;;;19.93;84.47;100665.72;5056828;28;20033;-67
2021/07/28 01:53:20;;;;;;;30.67;16.58;;;;;;;19.90;84.33;100654.66;5059061;28;20045;-68
2021/07/28 01:56:05;;;;;;;23.23;14.85;;;;;;;20.02;83.88;100657.09;5054744;28;20044;-69
2021/07/28 01:58:53;;;;;;;27.63;14.38;;;;;;;20.37;82.19;100657.44;5055610;28;20045;-69
2021/07/28 02:01:38;;;;;;;21.77;12.10;;;;;;;20.66;82.24;100657.66;5054264;28;20041;-69
2021/07/28 02:04:23;;;;;;;23.15;13.70;;;;;;;20.62;80.96;100662.38;5017932;28;20049;-69
2021/07/28 02:07:08;;;;;;;21.23;12.82;;;;;;;21.20;79.16;100654.03;5052418;28;20033;-69
2021/07/28 02:09:53;;;;;;;21.02;11.20;;;;;;;21.49;76.70;100661.25;5051811;28;20045;-68
2021/07/28 02:12:38;;;;;;;18.02;10.27;;;;;;;21.40;76.75;100654.50;5038258;28;20451;-69
2021/07/28 02:15:24;;;;;;;19.33;12.52;;;;;;;21.32;75.61;100657.25;5053536;28;20038;-68
2021/07/28 02:18:09;;;;;;;16.67;10.80;;;;;;;21.70;75.14;100650.25;5049136;28;20033;-69
2021/07/28 02:20:56;;;;;;;19.88;11.18;;;;;;;21.76;74.97;100648.69;5053094;28;20490;-68
2021/07/28 02:23:42;;;;;;;17.00;10.18;;;;;;;21.37;75.45;100650.56;5058849;28;20040;-69
2021/07/28 02:26:26;;;;;;;17.77;12.27;;;;;;;21.52;75.11;100648.63;5049576;28;20036;-71
2021/07/28 02:29:11;;;;;;;;;;;;;;;21.73;74.63;100652.25;5049006;28;20037;-69
2021/07/28 02:31:55;;;;;;;16.40;10.27;;;;;;;22.02;72.88;100655.88;5052553;28;19917;-69
2021/07/28 02:34:40;;;;;;;16.02;10.45;;;;;;;22.32;71.85;100646.38;5058122;28;20033;-72
2021/07/28 02:37:25;;;;;;;25.40;12.90;;;;;;;22.37;70.98;100646.78;5050782;28;20049;-69
2021/07/28 02:40:16;;;;;;;18.30;11.65;;;;;;;22.20;71.55;100657.88;5033365;28;20041;-68
2021/07/28 02:43:00;;;;;;;17.98;11.77;;;;;;;22.32;71.35;100652.72;5051085;28;20048;-68
2021/07/28 02:45:45;;;;;;;22.65;10.80;;;;;;;22.36;70.22;100645.19;5052575;28;20045;-67
2021/07/28 02:48:30;;;;;;;15.02;9.05;;;;;;;22.35;70.35;100654.69;5049849;28;20049;-67
2021/07/28 02:51:15;;;;;;;18.05;9.90;;;;;;;22.39;70.08;100649.97;5052684;28;20048;-68
2021/07/28 02:54:00;;;;;;;18.02;10.52;;;;;;;22.37;69.86;100648.75;5053638;28;20055;-68
2021/07/28 02:56:45;;;;;;;17.17;10.73;;;;;;;22.26;70.22;100645.97;5050702;28;20045;-69
2021/07/28 02:59:29;;;;;;;16.90;10.80;;;;;;;22.10;71.11;100646.38;5058207;28;20479;-67
2021/07/28 03:02:14;;;;;;;19.60;12.82;;;;;;;22.10;70.82;100637.28;5057766;28;20040;-67
2021/07/28 03:04:59;;;;;;;21.75;13.07;;;;;;;21.33;73.57;100630.41;5050603;28;20045;-70
2021/07/28 03:07:44;;;;;;;21.85;11.07;;;;;;;21.45;74.47;100637.53;5052357;28;20037;-68
2021/07/28 03:10:29;;;;;;;17.27;11.45;;;;;;;21.69;73.01;100631.25;5054081;28;20036;-70
2021/07/28 03:13:13;;;;;;;17.35;10.90;;;;;;;21.89;72.72;100631.72;5050254;28;20398;-68
2021/07/28 03:16:11;;;;;;;19.58;11.88;;;;;;;21.82;72.59;100629.72;5051320;28;20044;-67
2021/07/28 03:18:56;;;;;;;15.88;11.98;;;;;;;21.91;72.54;100623.78;5056415;28;20045;-68
2021/07/28 03:21:42;;;;;;;23.08;12.65;;;;;;;22.02;71.43;100611.56;5056536;28;20045;-68
2021/07/28 03:24:27;;;;;;;20.88;12.90;;;;;;;21.86;72.34;100624.97;5056643;28;20041;-70
2021/07/28 03:27:12;;;;;;;21.85;14.80;;;;;;;21.81;72.56;100611.50;5040705;28;20062;-67
2021/07/28 03:29:57;;;;;;;23.52;15.27;;;;;;;22.11;71.90;100620.28;5054409;28;20040;-68
2021/07/28 03:32:42;;;;;;;22.73;14.35;;;;;;;22.17;71.37;100617.91;5046736;28;20041;-68
2021/07/28 03:35:27;;;;;;;22.05;14.45;;;;;;;22.22;71.31;100619.47;5053593;28;20041;-69
2021/07/28 03:38:13;;;;;;;28.13;16.77;;;;;;;21.54;73.70;100619.38;5052831;28;20398;-69
2021/07/28 03:40:57;;;;;;;19.90;13.75;;;;;;;21.65;73.83;100617.41;5050930;28;20041;-70
2021/07/28 03:43:42;;;;;;;19.08;12.88;;;;;;;22.05;72.23;100623.81;5057838;28;20049;-68
2021/07/28 03:46:27;;;;;;;33.13;15.80;;;;;;;21.65;72.41;100624.94;5051827;28;20045;-70
2021/07/28 03:49:12;;;;;;;29.80;15.82;;;;;;;21.37;74.12;100624.88;5050404;28;20414;-67
2021/07/28 03:51:57;;;;;;;20.40;12.68;;;;;;;21.42;74.58;100608.69;5055556;28;20041;-67
2021/07/28 03:54:43;;;;;;;;;;;;;;;21.21;74.37;100620.47;5060950;28;20502;-67
2021/07/28 03:57:28;;;;;;;19.65;12.10;;;;;;;21.05;76.14;100622.72;5054292;28;19912;-70
2021/07/28 04:00:13;;;;;;;20.50;10.73;;;;;;;21.69;73.66;100620.97;5060893;28;20486;-67
2021/07/28 04:02:58;;;;;;;25.38;12.45;;;;;;;21.62;72.39;100622.97;5061001;28;20045;-67
2021/07/28 04:05:43;;;;;;;16.15;10.23;;;;;;;20.90;75.48;100623.84;5053399;28;20041;-68
2021/07/28 04:08:28;;;;;;;17.60;10.18;;;;;;;20.65;76.39;100618.19;5060342;28;20501;-69
2021/07/28 04:11:13;;;;;;;14.75;10.20;;;;;;;20.93;75.89;100620.28;5060485;28;20045;-68
2021/07/28 04:13:58;;;;;;;20.27;8.98;;;;;;;21.23;74.20;100611.78;5050319;28;20037;-70
2021/07/28 04:16:43;;;;;;;15.90;12.07;;;;;;;20.69;76.25;100621.75;5054195;28;20406;-67
2021/07/28 04:19:28;;;;;;;18.30;11.60;;;;;;;20.29;77.38;100610.78;5059809;28;20041;-68
2021/07/28 04:22:13;;;;;;;17.50;12.02;;;;;;;20.13;78.90;100615.78;5047222;28;20041;-68
2021/07/28 04:24:58;;;;;;;22.27;11.00;;;;;;;20.57;78.34;100615.78;5050010;28;20486;-67
2021/07/28 04:27:43;;;;;;;22.08;14.90;;;;;;;20.61;77.11;100622.09;5060967;28;20490;-68
2021/07/28 04:30:28;;;;;;;16.73;12.88;;;;;;;20.31;78.23;100614.81;5055529;28;20036;-67
2021/07/28 04:33:12;;;;;;;22.92;13.57;;;;;;;20.74;76.87;100613.09;5045200;28;20040;-68
2021/07/28 04:35:57;;;;;;;17.52;11.20;;;;;;;21.21;75.17;100617.69;5056605;28;20418;-67
2021/07/28 04:38:42;;;;;;;21.88;12.40;;;;;;;21.65;73.24;100613.84;5060950;28;20053;-68
2021/07/28 04:41:28;;;;;;;22.60;12.45;;;;;;;21.52;72.90;100613.44;5053549;28;20048;-68
2021/07/28 04:44:12;;;;;;;19.08;11.73;;;;;;;21.56;73.42;100614.25;5059251;28;20053;-70
2021/07/28 04:46:57;;;;;;;24.00;11.70;;;;;;;21.35;73.12;100608.66;5054369;28;20498;-68
2021/07/28 04:49:42;;;;;;;14.40;10.18;;;;;;;21.63;73.53;100616.25;5052990;28;20044;-68
2021/07/28 04:52:27;;;;;;;25.00;12.30;;;;;;;21.82;72.15;100620.63;5060651;28;20402;-68
2021/07/28 04:55:13;;;;;;;19.08;11.93;;;;;;;21.96;72.00;100624.22;5038237;28;20045;-68
2021/07/28 04:57:58;;;;;;;15.27;10.65;;;;;;;21.67;71.90;100611.50;5053087;28;20045;-70
2021/07/28 05:00:43;;;;;;;19.48;10.90;;;;;;;21.69;72.60;100620.19;5040117;28;20041;-68
2021/07/28 05:03:29;;;;;;;18.15;10.68;;;;;;;22.04;71.33;100613.94;5054927;28;20045;-68
2021/07/28 05:06:14;;;;;;;15.70;9.68;;;;;;;22.07;71.02;100627.00;5050447;28;20045;-68
2021/07/28 05:08:59;;;;;;;20.27;9.68;;;;;;;22.35;70.24;100620.66;5050820;28;20056;-68
2021/07/28 05:11:43;;;;;;;17.50;9.52;;;;;;;22.65;69.44;100631.31;5053877;28;20044;-68
2021/07/28 05:14:28;;;;;;;18.25;8.73;;;;;;;22.95;68.35;100628.88;5052353;28;20048;-67
2021/07/28 05:17:14;;;;;;;24.45;9.63;;;;;;;23.55;67.23;100628.66;5056832;28;20072;-67
2021/07/28 05:19:58;;;;;;;19.77;9.40;;;;;;;23.77;66.01;100624.53;5053426;28;20044;-67
2021/07/28 05:22:43;;;;;;;16.90;9.32;;;;;;;23.65;66.19;100636.13;5051934;28;20071;-68
2021/07/28 05:25:28;;;;;;;18.52;9.13;;;;;;;23.54;67.05;100637.38;5055191;28;20052;-67
2021/07/28 05:28:13;;;;;;;18.05;8.25;;;;;;;23.51;67.12;100632.63;5053791;28;20041;-67
2021/07/28 05:30:58;;;;;;;12.88;8.35;;;;;;;23.70;66.26;100638.47;5052871;28;20052;-67
2021/07/28 05:33:43;;;;;;;18.98;8.63;;;;;;;23.72;66.12;100643.63;5056309;28;20493;-68
2021/07/28 05:36:28;;;;;;;17.33;7.53;;;;;;;23.83;65.92;100647.91;5052962;28;20056;-68
2021/07/28 05:39:13;;;;;;;22.88;8.73;;;;;;;23.99;65.66;100657.72;5054440;28;20056;-68
2021/07/28 05:41:59;;;;;;;18.58;7.78;;;;;;;24.07;65.12;100645.38;5057918;28;20056;-67
2021/07/28 05:44:44;;;;;;;19.73;7.72;;;;;;;24.23;64.49;100657.56;5058677;28;20048;-68
2021/07/28 05:47:29;;;;;;;13.98;8.40;;;;;;;24.22;64.40;100660.75;5054121;28;20075;-68
2021/07/28 05:50:15;;;;;;;16.85;7.78;;;;;;;24.51;64.25;100658.50;5052528;28;20056;-68
2021/07/28 05:52:59;;;;;;;15.23;8.60;;;;;;;24.76;63.31;100655.50;5055096;28;20052;-68
2021/07/28 05:55:44;;;;;;;14.20;7.15;;;;;;;24.64;63.53;100665.94;5053112;28;20414;-68
2021/07/28 05:58:29;;;;;;;;;;;;;;;24.69;63.04;100668.25;5049577;28;20060;-68
2021/07/28 06:01:13;;;;;;;15.85;7.28;;;;;;;24.93;62.56;100665.69;5056172;28;19916;-68
2021/07/28 06:03:58;;;;;;;13.00;6.70;;;;;;;25.14;61.73;100671.78;5052206;28;20052;-67
2021/07/28 06:06:43;;;;;;;14.55;6.03;;;;;;;24.94;62.29;100670.03;5050614;28;20044;-69
2021/07/28 06:09:28;;;;;;;15.73;6.70;;;;;;;24.65;63.13;100670.28;5056001;28;20047;-68
2021/07/28 06:12:17;;;;;;;13.70;6.53;;;;;;;24.54;63.58;100680.72;5053632;28;20040;-69
2021/07/28 06:15:02;;;;;;;13.95;6.18;;;;;;;24.51;63.59;100692.69;5050340;28;20509;-69
2021/07/28 06:17:46;;;;;;;15.25;5.18;;;;;;;24.43;64.37;100685.56;5055656;28;20052;-68
2021/07/28 06:20:31;;;;;;;17.55;5.97;;;;;;;24.45;64.17;100683.19;5054260;28;20044;-68
2021/07/28 06:23:16;;;;;;;14.65;7.78;;;;;;;24.32;64.44;100676.56;5055604;28;20043;-68
2021/07/28 06:26:01;;;;;;;19.58;7.85;;;;;;;24.35;64.60;100675.72;5054015;28;20450;-69
2021/07/28 06:28:46;;;;;;;14.05;5.43;;;;;;;24.36;64.49;100682.88;5053453;28;20048;-68
2021/07/28 06:31:31;;;;;;;12.77;5.53;;;;;;;24.45;63.97;100685.97;5052103;28;20044;-69
2021/07/28 06:34:15;;;;;;;;;;;;;;;24.55;63.52;100685.09;5054368;28;20051;-69
2021/07/28 06:37:00;;;;;;;10.00;5.00;;;;;;;24.57;63.43;100671.56;5037805;28;19913;-69
2021/07/28 06:39:45;;;;;;;14.05;5.72;;;;;;;24.63;63.98;100680.25;5048952;28;20401;-69
2021/07/28 06:42:30;;;;;;;14.95;5.25;;;;;;;24.70;63.62;100669.84;5055627;28;20043;-68
2021/07/28 06:45:15;;;;;;;7.97;4.20;;;;;;;24.77;62.87;100659.84;5051705;28;20067;-69
2021/07/28 06:47:59;;;;;;;11.43;5.20;;;;;;;24.76;62.89;100670.19;5051029;28;20060;-68
2021/07/28 06:50:45;;;;;;;20.25;5.05;;;;;;;24.80;62.64;100662.59;5055617;28;20510;-68
2021/07/28 06:53:29;;;;;;;9.23;5.10;;;;;;;24.83;62.59;100663.78;5054038;28;20047;-68
2021/07/28 06:56:15;;;;;;;10.00;4.07;;;;;;;24.87;62.66;100667.31;5052397;28;20056;-68
2021/07/28 06:58:59;;;;;;;8.82;4.10;;;;;;;24.88;62.58;100660.56;5054777;28;20052;-68
2021/07/28 07:01:45;;;;;;;12.13;4.45;;;;;;;24.96;62.19;100656.50;5056750;28;20044;-68
2021/07/28 07:04:29;;;;;;;13.98;5.13;;;;;;;25.00;62.12;100666.38;5052176;28;20044;-69
2021/07/28 07:07:14;;;;;;;13.95;4.72;;;;;;;25.08;61.13;100667.09;5054066;28;20048;-69
2021/07/28 07:09:59;;;;;;;11.20;4.25;;;;;;;25.12;60.24;100673.41;5052860;28;20048;-69
2021/07/28 07:12:45;;;;;;;8.60;4.85;;;;;;;25.22;60.84;100669.72;5049960;28;20506;-69
2021/07/28 07:15:31;;;;;;;13.98;4.28;;;;;;;25.17;58.02;100666.59;5054306;28;20425;-68
2021/07/28 07:18:16;;;;;;;9.20;4.13;;;;;;;25.28;60.70;100668.06;5055294;28;20328;-69
2021/07/28 07:21:01;;;;;;;17.15;4.13;;;;;;;25.31;58.17;100664.41;5053529;28;20044;-68
2021/07/28 07:23:45;;;;;;;;;;;;;;;25.41;58.20;100657.94;5051765;28;20055;-68
2021/07/28 07:26:29;;;;;;;19.80;3.80;;;;;;;25.37;57.41;100659.97;5052018;28;19913;-68
2021/07/28 07:29:14;;;;;;;6.97;4.30;;;;;;;25.41;57.63;100659.91;5053646;28;20277;-68
2021/07/28 07:32:00;;;;;;;9.50;3.35;;;;;;;25.51;55.94;100656.22;5046287;28;20043;-68
2021/07/28 07:34:45;;;;;;;13.73;4.05;;;;;;;25.55;58.11;100660.53;5053548;28;20048;-69
2021/07/28 07:37:29;;;;;;;10.20;3.80;;;;;;;25.51;57.49;100668.13;5054647;28;20044;-68
2021/07/28 07:40:15;;;;;;;9.10;4.25;;;;;;;25.59;56.77;100659.72;5037290;28;20048;-68
2021/07/28 07:43:00;;;;;;;7.90;3.80;;;;;;;25.72;56.64;100657.94;5048972;28;20052;-68
2021/07/28 07:45:45;;;;;;;9.90;3.85;;;;;;;25.80;57.44;100659.44;5051205;28;20422;-69
2021/07/28 07:48:30;;;;;;;9.75;4.38;;;;;;;25.93;55.60;100660.41;5054175;28;20048;-69
2021/07/28 07:51:15;;;;;;;13.70;4.00;;;;;;;26.09;56.20;100662.56;5054144;28;20056;-69
2021/07/28 07:54:00;;;;;;;11.32;3.92;;;;;;;26.01;55.96;100666.69;5030015;28;20521;-69
2021/07/28 07:56:45;;;;;;;14.50;4.90;;;;;;;26.02;56.08;100655.09;5050769;28;20044;-69
2021/07/28 07:59:30;;;;;;;15.50;3.67;;;;;;;26.14;53.75;100659.31;5054477;28;20048;-69
2021/07/28 08:02:14;;;;;;;7.78;3.85;;;;;;;26.31;53.57;100659.03;5038753;28;20417;-68
2021/07/28 08:04:59;;;;;;;15.45;4.70;;;;;;;26.37;52.61;100662.13;5037165;28;20052;-68
2021/07/28 08:07:44;;;;;;;;;;;;;;;26.38;50.82;100658.91;5053640;28;20501;-68
2021/07/28 08:10:28;;;;;;;5.97;2.42;;;;;;;26.77;50.25;100649.03;5050809;28;19921;-68
2021/07/28 08:13:13;;;;;;;15.05;3.20;;;;;;;26.69;51.38;100647.63;5053373;28;20509;-68
2021/07/28 08:15:58;;;;;;;14.55;3.58;;;;;;;26.58;52.68;100660.97;5045277;28;20513;-68
2021/07/28 08:18:43;;;;;;;10.75;3.72;;;;;;;26.65;52.50;100660.84;5052558;28;20052;-68
2021/07/28 08:21:27;;;;;;;;;;;;;;;26.74;51.35;100659.06;5054407;28;20040;-68
2021/07/28 08:24:12;;;;;;;6.38;2.95;;;;;;;26.89;50.73;100656.03;5050950;28;19916;-68
2021/07/28 08:26:57;;;;;;;13.73;3.97;;;;;;;26.71;51.71;100656.34;5036641;28;20048;-69
2021/07/28 08:29:41;;;;;;;9.25;3.10;;;;;;;26.55;52.92;100659.03;5037203;28;20426;-69
2021/07/28 08:32:26;;;;;;;12.75;3.30;;;;;;;26.30;53.17;100654.69;5052955;28;20044;-68
2021/07/28 08:35:11;;;;;;;10.82;3.53;;;;;;;26.37;53.21;100657.34;5053186;28;20525;-68
2021/07/28 08:37:56;;;;;;;9.75;3.45;;;;;;;26.45;53.25;100663.59;5051299;28;20517;-68
2021/07/28 08:40:41;;;;;;;13.40;4.50;;;;;;;26.37;53.51;100651.75;5042239;28;20048;-68
2021/07/28 08:43:31;;;;;;;9.70;3.78;;;;;;;26.52;54.16;100659.88;5043199;28;20036;-68
2021/07/28 08:46:17;;;;;;;6.78;3.42;;;;;;;26.36;54.11;100652.19;5037681;28;20659;-68
2021/07/28 08:49:02;;;;;;;12.68;3.97;;;;;;;26.27;55.38;100652.72;5052098;28;20048;-68
2021/07/28 08:51:48;;;;;;;7.70;4.40;;;;;;;26.67;54.58;100653.63;5043481;28;20036;-69
2021/07/28 08:54:32;;;;;;;20.58;4.18;;;;;;;26.70;54.80;100654.78;5038075;28;20040;-69
2021/07/28 08:57:18;;;;;;;9.35;3.67;;;;;;;26.63;53.62;100657.69;5051235;28;20406;-69
2021/07/28 09:00:07;;;;;;;12.63;4.70;;;;;;;26.90;55.70;100660.41;5051781;28;20418;-69
2021/07/28 09:02:55;;;;;;;11.15;4.30;;;;;;;26.68;54.17;100654.41;5053044;28;20052;-69
2021/07/28 09:05:41;;;;;;;10.80;4.10;;;;;;;26.74;54.13;100655.50;5034747;28;20044;-69
2021/07/28 09:08:31;;;;;;;11.07;4.18;;;;;;;26.60;54.37;100658.53;5044085;28;20059;-68
2021/07/28 09:11:19;;;;;;;16.90;4.28;;;;;;;26.52;53.97;100657.88;5041488;28;20051;-68
2021/07/28 09:14:19;;;;;;;11.70;4.00;;;;;;;26.53;54.23;100667.81;5051746;28;20048;-69
2021/07/28 09:17:19;;;;;;;10.95;3.97;;;;;;;26.39;54.94;100663.28;5036081;28;20052;-68
2021/07/28 09:20:04;;;;;;;10.07;5.13;;;;;;;26.52;55.13;100660.66;5038202;28;20052;-69
2021/07/28 09:22:50;;;;;;;10.07;4.95;;;;;;;26.51;55.06;100661.91;5047276;28;20047;-69
2021/07/28 09:25:36;;;;;;;8.70;4.57;;;;;;;26.68;54.81;100657.97;5053245;28;20466;-69
2021/07/28 09:28:23;;;;;;;11.27;4.93;;;;;;;26.74;55.08;100658.28;5057745;28;20044;-69
2021/07/28 09:31:09;;;;;;;13.60;5.05;;;;;;;26.87;53.86;100659.25;5058362;28;20048;-69
2021/07/28 09:34:06;;;;;;;11.48;4.88;;;;;;;26.78;54.75;100661.78;5059744;28;20043;-68
2021/07/28 09:36:53;;;;;;;15.45;5.35;;;;;;;26.83;54.08;100667.66;5052559;28;20052;-69
2021/07/28 09:39:39;;;;;;;12.55;4.57;;;;;;;26.94;53.71;100659.13;5057564;28;20040;-68
2021/07/28 09:42:28;;;;;;;11.07;4.05;;;;;;;27.09;54.58;100656.84;5037817;28;20060;-68
2021/07/28 09:45:12;;;;;;;19.33;5.38;;;;;;;27.19;53.63;100658.63;5050023;28;20048;-68
2021/07/28 09:47:57;;;;;;;7.95;3.65;;;;;;;27.05;52.98;100656.13;5059226;28;20108;-69
2021/07/28 09:50:42;;;;;;;16.85;4.93;;;;;;;26.84;53.96;100657.28;5057438;28;20044;-69
2021/07/28 09:53:28;;;;;;;;;;;;;;;26.90;53.70;100658.41;5054127;28;20072;-69
2021/07/28 09:56:26;;;;;;;11.55;4.00;;;;;;;27.01;53.54;100655.41;5054029;28;19916;-69
2021/07/28 09:59:12;;;;;;;10.02;5.45;;;;;;;26.93;53.53;100649.16;5052692;28;20529;-69
2021/07/28 10:01:57;;;;;;;8.32;4.25;;;;;;;26.98;53.52;100648.66;5058115;28;20056;-69
2021/07/28 10:04:47;;;;;;;6.20;3.72;;;;;;;26.74;54.06;100635.97;5054807;28;20064;-69
2021/07/28 10:07:34;;;;;;;7.22;3.70;;;;;;;26.58;54.96;100633.06;5049409;28;20394;-69
2021/07/28 10:10:19;;;;;;;10.23;3.72;;;;;;;26.46;54.96;100637.28;5054900;28;20056;-69
2021/07/28 10:13:05;;;;;;;12.70;4.00;;;;;;;26.37;55.41;100628.66;5042694;28;20048;-68
2021/07/28 10:15:50;;;;;;;14.68;4.63;;;;;;;26.48;55.36;100615.31;5052647;28;20052;-68
2021/07/28 10:18:36;;;;;;;11.13;4.82;;;;;;;26.58;54.98;100621.91;5053235;28;20044;-69
2021/07/28 10:21:21;;;;;;;10.05;4.03;;;;;;;26.55;54.85;100617.19;5055833;28;20043;-69
2021/07/28 10:24:07;;;;;;;6.53;3.88;;;;;;;26.58;54.68;100610.75;5053958;28;20048;-69
2021/07/28 10:26:54;;;;;;;11.35;3.97;;;;;;;26.74;54.18;100608.06;5049096;28;20414;-69
2021/07/28 10:29:40;;;;;;;17.60;5.70;;;;;;;26.89;54.08;100606.59;5056710;28;20064;-69
2021/07/28 10:32:30;;;;;;;11.65;4.70;;;;;;;27.19;53.69;100606.38;5057787;28;20048;-69
2021/07/28 10:35:22;;;;;;;15.77;7.07;;;;;;;27.57;54.16;100608.75;5050686;28;20036;-69
2021/07/28 10:38:20;;;;;;;13.30;4.97;;;;;;;27.73;52.62;100602.41;5051755;28;20064;-69
2021/07/28 10:41:09;;;;;;;10.25;5.45;;;;;;;27.85;52.54;100608.09;5050544;28;20052;-69
2021/07/28 10:44:14;;;;;;;19.90;6.13;;;;;;;27.86;52.89;100612.47;5055069;28;20048;-68
2021/07/28 10:47:05;;;;;;;11.07;5.32;;;;;;;27.85;53.37;100605.28;5053293;28;20052;-69
2021/07/28 10:49:50;;;;;;;18.45;5.05;;;;;;;27.94;52.01;100605.47;5057665;28;20056;-69
2021/07/28 10:52:44;;;;;;;14.40;6.07;;;;;;;27.92;53.15;100607.13;5057062;28;20052;-69
2021/07/28 10:55:30;;;;;;;18.90;5.25;;;;;;;28.13;51.19;100595.47;5053690;28;20402;-69
2021/07/28 10:58:33;;;;;;;10.68;4.40;;;;;;;28.01;51.64;100610.91;5046568;28;20513;-69
2021/07/28 11:01:17;;;;;;;15.52;5.15;;;;;;;27.94;51.91;100605.47;5056110;28;20633;-69
2021/07/28 11:04:23;;;;;;;14.30;5.22;;;;;;;28.14;51.21;100611.00;5055114;28;20063;-69
2021/07/28 11:07:09;;;;;;;15.70;6.22;;;;;;;28.24;51.45;100604.34;5056811;28;20067;-69
2021/07/28 11:10:04;;;;;;;18.58;6.63;;;;;;;28.71;50.35;100601.88;5051702;28;20064;-69
2021/07/28 11:12:49;;;;;;;13.25;5.88;;;;;;;28.55;50.28;100607.53;5042333;28;20052;-69
2021/07/28 11:15:35;;;;;;;13.68;5.90;;;;;;;28.51;50.20;100604.03;5050662;28;20044;-69
2021/07/28 11:18:46;;;;;;;21.42;6.07;;;;;;;28.77;52.07;100602.16;5057565;28;20513;-68
2021/07/28 11:21:32;;;;;;;13.48;5.10;;;;;;;28.88;50.32;100595.03;5056673;28;20328;-68
2021/07/28 11:24:17;;;;;;;23.70;5.93;;;;;;;28.76;51.19;100597.78;5057206;28;20052;-69
2021/07/28 11:27:10;;;;;;;17.25;5.20;;;;;;;28.44;51.23;100593.06;5053245;28;20052;-69
2021/07/28 11:30:14;;;;;;;10.60;4.30;;;;;;;28.80;49.67;100590.88;5050654;28;20552;-69
2021/07/28 11:33:16;;;;;;;13.70;4.55;;;;;;;28.61;50.78;100585.38;5057378;28;20048;-69
2021/07/28 11:36:01;;;;;;;10.93;4.47;;;;;;;27.95;52.19;100583.88;5051662;28;20048;-69
2021/07/28 11:38:46;;;;;;;13.15;5.60;;;;;;;27.95;53.17;100584.69;5057734;28;20044;-69
2021/07/28 11:41:31;;;;;;;20.13;5.40;;;;;;;28.12;52.59;100590.31;5053470;28;20048;-69
2021/07/28 11:44:17;;;;;;;13.90;4.30;;;;;;;27.79;52.09;100581.88;5057476;28;20048;-69
2021/07/28 11:47:03;;;;;;;10.60;5.10;;;;;;;27.74;53.05;100574.00;5053543;28;20044;-69
2021/07/28 11:50:00;;;;;;;13.05;5.35;;;;;;;27.58;53.15;100574.03;5057452;28;20055;-69
2021/07/28 11:52:46;;;;;;;10.32;4.60;;;;;;;27.50;53.50;100570.59;5049454;28;20517;-68
2021/07/28 11:55:31;;;;;;;13.00;5.47;;;;;;;27.74;52.67;100570.44;5054367;28;20406;-69
2021/07/28 11:58:16;;;;;;;11.95;5.30;;;;;;;27.58;52.83;100568.44;5057878;28;20052;-70
2021/07/28 12:01:24;;;;;;;11.50;5.18;;;;;;;27.55;53.73;100560.91;5051513;28;20437;-70
2021/07/28 12:04:09;;;;;;;13.57;5.93;;;;;;;27.51;54.14;100560.22;5054481;28;20055;-70
2021/07/28 12:06:54;;;;;;;9.95;4.15;;;;;;;27.52;52.58;100561.78;5049790;28;20044;-69
2021/07/28 12:09:40;;;;;;;14.02;5.45;;;;;;;27.55;53.41;100563.69;5055570;28;20116;-69
2021/07/28 12:12:26;;;;;;;10.18;4.15;;;;;;;27.39;53.94;100569.22;5054158;28;20410;-69
2021/07/28 12:15:12;;;;;;;14.75;4.82;;;;;;;27.05;54.94;100562.00;5054599;28;20044;-69
2021/07/28 12:17:57;;;;;;;8.02;4.97;;;;;;;27.32;54.25;100570.19;5053260;28;20056;-69
2021/07/28 12:20:55;;;;;;;13.25;4.40;;;;;;;27.71;53.41;100569.31;5057732;28;20076;-69
2021/07/28 12:23:52;;;;;;;12.40;4.93;;;;;;;27.50;53.63;100567.00;5055720;28;20044;-70
2021/07/28 12:26:47;;;;;;;13.18;5.30;;;;;;;27.70;53.28;100566.94;5054609;28;20418;-69
2021/07/28 12:29:37;;;;;;;12.15;4.90;;;;;;;27.85;52.95;100573.75;5056829;28;20087;-69
2021/07/28 12:32:52;;;;;;;14.43;5.22;;;;;;;27.76;53.18;100570.78;5060463;28;20047;-70
2021/07/28 12:35:46;;;;;;;16.55;4.68;;;;;;;27.53;54.03;100566.91;5050803;28;20040;-69
2021/07/28 12:38:31;;;;;;;13.00;4.50;;;;;;;28.09;52.86;100556.34;5054976;28;20517;-69
2021/07/28 12:41:18;;;;;;;12.05;5.07;;;;;;;28.62;49.04;100564.56;5058128;28;20521;-69
2021/07/28 12:44:03;;;;;;;11.77;4.15;;;;;;;28.80;47.35;100556.50;5036799;28;20049;-69
2021/07/28 12:46:47;;;;;;;10.40;4.43;;;;;;;29.23;49.25;100553.22;5033813;28;20403;-69
2021/07/28 12:49:32;;;;;;;12.68;5.03;;;;;;;29.37;49.12;100538.78;5040689;28;20048;-68